sensor_id;sensor_type;location;lat;lon;timestamp;temperature;humidity
2945;DHT22;1482;51.398;7.128;2023-01-10T00:00:37;6.60;52.90
2945;DHT22;1482;51.398;7.128;2023-01-10T00:03:04;6.60;64.40
2945;DHT22;1482;51.398;7.128;2023-01-10T00:05:30;6.50;99.90
2945;DHT22;1482;51.398;7.128;2023-01-10T00:07:56;6.40;99.90
2945;DHT22;1482;51.398;7.128;2023-01-10T00:10:23;6.40;99.90
2945;DHT22;1482;51.398;7.128;2023-01-10T00:12:49;6.40;99.90
2945;DHT22;1482;51.398;7.128;2023-01-10T00:15:34;6.30;99.90
2945;DHT22;1482;51.398;7.128;2023-01-10T00:18:00;6.50;99.90
2945;DHT22;1482;51.398;7.128;2023-01-10T00:20:26;6.40;99.90
2945;DHT22;1482;51.398;7.128;2023-01-10T00:22:51;6.40;99.90
2945;DHT22;1482;51.398;7.128;2023-01-10T00:25:17;6.40;58.70
2945;DHT22;1482;51.398;7.128;2023-01-10T00:27:46;6.50;99.90
2945;DHT22;1482;51.398;7.128;2023-01-10T00:30:15;6.50;99.90
2945;DHT22;1482;51.398;7.128;2023-01-10T00:32:42;6.40;69.60
2945;DHT22;1482;51.398;7.128;2023-01-10T00:35:08;6.40;99.90
2945;DHT22;1482;51.398;7.128;2023-01-10T00:37:35;6.40;99.90
2945;DHT22;1482;51.398;7.128;2023-01-10T00:40:00;6.40;9.40
2945;DHT22;1482;51.398;7.128;2023-01-10T00:42:26;6.50;99.90
2945;DHT22;1482;51.398;7.128;2023-01-10T00:45:10;6.40;99.90
2945;DHT22;1482;51.398;7.128;2023-01-10T00:47:36;6.40;47.20
2945;DHT22;1482;51.398;7.128;2023-01-10T00:50:03;6.40;81.40
2945;DHT22;1482;51.398;7.128;2023-01-10T00:52:33;6.30;99.90
2945;DHT22;1482;51.398;7.128;2023-01-10T00:54:58;6.40;99.90
2945;DHT22;1482;51.398;7.128;2023-01-10T00:57:24;6.30;99.90
2945;DHT22;1482;51.398;7.128;2023-01-10T00:59:49;6.30;99.90
2945;DHT22;1482;51.398;7.128;2023-01-10T01:02:15;6.30;99.90
2945;DHT22;1482;51.398;7.128;2023-01-10T01:04:40;6.40;99.90
2945;DHT22;1482;51.398;7.128;2023-01-10T01:07:06;6.20;99.90
2945;DHT22;1482;51.398;7.128;2023-01-10T01:09:31;6.20;45.30
2945;DHT22;1482;51.398;7.128;2023-01-10T01:11:57;6.20;99.90
2945;DHT22;1482;51.398;7.128;2023-01-10T01:14:23;6.10;99.90
2945;DHT22;1482;51.398;7.128;2023-01-10T01:16:49;6.00;99.90
2945;DHT22;1482;51.398;7.128;2023-01-10T01:19:14;6.00;99.90
2945;DHT22;1482;51.398;7.128;2023-01-10T01:21:40;6.00;99.90
2945;DHT22;1482;51.398;7.128;2023-01-10T01:24:07;6.00;99.90
2945;DHT22;1482;51.398;7.128;2023-01-10T01:26:33;6.10;99.90
2945;DHT22;1482;51.398;7.128;2023-01-10T01:28:59;5.90;1.00
2945;DHT22;1482;51.398;7.128;2023-01-10T01:31:25;6.10;1.00
2945;DHT22;1482;51.398;7.128;2023-01-10T01:33:50;6.10;99.90
2945;DHT22;1482;51.398;7.128;2023-01-10T01:36:16;6.10;99.90
2945;DHT22;1482;51.398;7.128;2023-01-10T01:38:41;6.10;99.90
2945;DHT22;1482;51.398;7.128;2023-01-10T01:41:07;6.10;99.90
2945;DHT22;1482;51.398;7.128;2023-01-10T01:44:15;6.10;99.90
2945;DHT22;1482;51.398;7.128;2023-01-10T01:46:47;6.20;27.20
2945;DHT22;1482;51.398;7.128;2023-01-10T01:49:18;6.20;1.00
2945;DHT22;1482;51.398;7.128;2023-01-10T01:51:47;6.20;1.00
2945;DHT22;1482;51.398;7.128;2023-01-10T01:54:13;6.20;1.00
2945;DHT22;1482;51.398;7.128;2023-01-10T01:56:44;6.20;1.00
2945;DHT22;1482;51.398;7.128;2023-01-10T01:59:18;6.30;1.00
2945;DHT22;1482;51.398;7.128;2023-01-10T02:01:47;6.30;1.00
2945;DHT22;1482;51.398;7.128;2023-01-10T02:04:25;6.30;1.00
2945;DHT22;1482;51.398;7.128;2023-01-10T02:06:53;6.30;1.00
2945;DHT22;1482;51.398;7.128;2023-01-10T02:09:24;6.40;1.00
2945;DHT22;1482;51.398;7.128;2023-01-10T02:11:53;6.30;1.00
2945;DHT22;1482;51.398;7.128;2023-01-10T02:14:19;6.30;1.00
2945;DHT22;1482;51.398;7.128;2023-01-10T02:16:46;6.30;1.00
2945;DHT22;1482;51.398;7.128;2023-01-10T02:19:39;6.30;1.00
2945;DHT22;1482;51.398;7.128;2023-01-10T02:34:01;6.40;99.90
2945;DHT22;1482;51.398;7.128;2023-01-10T02:36:49;6.40;99.90
2945;DHT22;1482;51.398;7.128;2023-01-10T02:42:14;6.40;99.90
2945;DHT22;1482;51.398;7.128;2023-01-10T02:44:57;6.40;99.90
2945;DHT22;1482;51.398;7.128;2023-01-10T02:47:25;6.20;99.90
2945;DHT22;1482;51.398;7.128;2023-01-10T02:49:51;6.20;99.90
2945;DHT22;1482;51.398;7.128;2023-01-10T02:52:22;6.20;99.90
2945;DHT22;1482;51.398;7.128;2023-01-10T02:54:50;6.20;99.90
2945;DHT22;1482;51.398;7.128;2023-01-10T02:57:41;6.10;99.90
2945;DHT22;1482;51.398;7.128;2023-01-10T03:03:32;6.00;99.90
2945;DHT22;1482;51.398;7.128;2023-01-10T03:06:21;5.80;99.90
2945;DHT22;1482;51.398;7.128;2023-01-10T03:08:58;5.70;1.00
2945;DHT22;1482;51.398;7.128;2023-01-10T03:11:29;5.60;1.00
2945;DHT22;1482;51.398;7.128;2023-01-10T03:14:15;5.70;1.00
2945;DHT22;1482;51.398;7.128;2023-01-10T03:16:45;5.70;1.00
2945;DHT22;1482;51.398;7.128;2023-01-10T03:19:19;5.70;1.00
2945;DHT22;1482;51.398;7.128;2023-01-10T03:21:46;5.80;1.00
2945;DHT22;1482;51.398;7.128;2023-01-10T03:24:17;5.90;1.00
2945;DHT22;1482;51.398;7.128;2023-01-10T03:26:57;5.90;1.00
2945;DHT22;1482;51.398;7.128;2023-01-10T03:29:36;5.80;1.00
2945;DHT22;1482;51.398;7.128;2023-01-10T03:32:05;5.90;1.00
2945;DHT22;1482;51.398;7.128;2023-01-10T03:34:32;5.90;1.00
2945;DHT22;1482;51.398;7.128;2023-01-10T03:37:08;5.90;99.90
2945;DHT22;1482;51.398;7.128;2023-01-10T03:42:08;5.90;99.90
2945;DHT22;1482;51.398;7.128;2023-01-10T03:44:42;5.90;99.90
2945;DHT22;1482;51.398;7.128;2023-01-10T03:50:03;5.90;99.90
2945;DHT22;1482;51.398;7.128;2023-01-10T03:52:32;5.80;99.90
2945;DHT22;1482;51.398;7.128;2023-01-10T03:54:58;5.80;99.90
2945;DHT22;1482;51.398;7.128;2023-01-10T03:57:26;5.80;99.90
2945;DHT22;1482;51.398;7.128;2023-01-10T03:59:56;5.80;99.90
2945;DHT22;1482;51.398;7.128;2023-01-10T04:02:26;5.70;99.90
2945;DHT22;1482;51.398;7.128;2023-01-10T04:04:52;5.80;99.90
2945;DHT22;1482;51.398;7.128;2023-01-10T04:07:17;5.70;99.90
2945;DHT22;1482;51.398;7.128;2023-01-10T04:09:43;5.60;99.90
2945;DHT22;1482;51.398;7.128;2023-01-10T04:12:08;5.60;99.90
2945;DHT22;1482;51.398;7.128;2023-01-10T04:14:34;5.40;99.90
2945;DHT22;1482;51.398;7.128;2023-01-10T04:16:59;5.40;99.90
2945;DHT22;1482;51.398;7.128;2023-01-10T04:19:25;5.30;99.90
2945;DHT22;1482;51.398;7.128;2023-01-10T04:21:51;5.20;99.90
2945;DHT22;1482;51.398;7.128;2023-01-10T04:24:16;5.20;1.00
2945;DHT22;1482;51.398;7.128;2023-01-10T04:26:42;5.20;1.00
2945;DHT22;1482;51.398;7.128;2023-01-10T04:29:07;5.10;1.00
2945;DHT22;1482;51.398;7.128;2023-01-10T04:31:33;5.20;1.00
2945;DHT22;1482;51.398;7.128;2023-01-10T04:33:59;5.10;1.00
2945;DHT22;1482;51.398;7.128;2023-01-10T04:36:24;5.00;1.00
2945;DHT22;1482;51.398;7.128;2023-01-10T04:38:50;5.10;1.00
2945;DHT22;1482;51.398;7.128;2023-01-10T04:41:16;5.20;1.00
2945;DHT22;1482;51.398;7.128;2023-01-10T04:43:41;5.20;1.00
2945;DHT22;1482;51.398;7.128;2023-01-10T04:46:06;5.10;1.00
2945;DHT22;1482;51.398;7.128;2023-01-10T04:48:33;5.10;1.00
2945;DHT22;1482;51.398;7.128;2023-01-10T04:50:58;5.10;1.00
2945;DHT22;1482;51.398;7.128;2023-01-10T04:53:24;5.10;1.00
2945;DHT22;1482;51.398;7.128;2023-01-10T04:55:49;5.10;1.00
2945;DHT22;1482;51.398;7.128;2023-01-10T04:58:15;5.10;1.00
2945;DHT22;1482;51.398;7.128;2023-01-10T05:00:41;5.00;1.00
2945;DHT22;1482;51.398;7.128;2023-01-10T05:03:06;4.90;1.00
2945;DHT22;1482;51.398;7.128;2023-01-10T05:05:32;5.00;1.00
2945;DHT22;1482;51.398;7.128;2023-01-10T05:07:57;5.00;1.00
2945;DHT22;1482;51.398;7.128;2023-01-10T05:10:23;5.10;1.00
2945;DHT22;1482;51.398;7.128;2023-01-10T05:12:48;5.00;1.00
2945;DHT22;1482;51.398;7.128;2023-01-10T05:15:14;5.20;1.00
2945;DHT22;1482;51.398;7.128;2023-01-10T05:17:40;5.20;1.00
2945;DHT22;1482;51.398;7.128;2023-01-10T05:20:06;5.20;1.00
2945;DHT22;1482;51.398;7.128;2023-01-10T05:22:32;5.20;1.00
2945;DHT22;1482;51.398;7.128;2023-01-10T05:24:58;5.20;1.00
2945;DHT22;1482;51.398;7.128;2023-01-10T05:27:24;5.30;1.00
2945;DHT22;1482;51.398;7.128;2023-01-10T05:29:49;5.30;1.00
2945;DHT22;1482;51.398;7.128;2023-01-10T05:32:15;5.40;1.00
2945;DHT22;1482;51.398;7.128;2023-01-10T05:34:40;5.50;1.00
2945;DHT22;1482;51.398;7.128;2023-01-10T05:37:06;5.60;99.90
2945;DHT22;1482;51.398;7.128;2023-01-10T05:39:32;5.60;99.90
2945;DHT22;1482;51.398;7.128;2023-01-10T05:41:57;5.50;99.90
2945;DHT22;1482;51.398;7.128;2023-01-10T05:44:23;5.60;99.90
2945;DHT22;1482;51.398;7.128;2023-01-10T05:46:48;5.60;99.90
2945;DHT22;1482;51.398;7.128;2023-01-10T05:49:14;5.60;99.90
2945;DHT22;1482;51.398;7.128;2023-01-10T05:51:39;5.50;99.90
2945;DHT22;1482;51.398;7.128;2023-01-10T05:54:06;5.50;99.90
2945;DHT22;1482;51.398;7.128;2023-01-10T05:56:32;5.50;99.90
2945;DHT22;1482;51.398;7.128;2023-01-10T05:58:58;5.30;99.90
2945;DHT22;1482;51.398;7.128;2023-01-10T06:01:24;5.30;99.90
2945;DHT22;1482;51.398;7.128;2023-01-10T06:03:49;5.40;99.90
2945;DHT22;1482;51.398;7.128;2023-01-10T06:06:15;5.20;99.90
2945;DHT22;1482;51.398;7.128;2023-01-10T06:08:40;5.20;99.90
2945;DHT22;1482;51.398;7.128;2023-01-10T06:11:06;5.10;1.00
2945;DHT22;1482;51.398;7.128;2023-01-10T06:13:32;5.10;1.00
2945;DHT22;1482;51.398;7.128;2023-01-10T06:15:57;5.10;1.00
2945;DHT22;1482;51.398;7.128;2023-01-10T06:18:23;5.00;1.00
2945;DHT22;1482;51.398;7.128;2023-01-10T06:20:49;5.00;1.00
2945;DHT22;1482;51.398;7.128;2023-01-10T06:23:15;5.10;1.00
2945;DHT22;1482;51.398;7.128;2023-01-10T06:25:40;5.10;1.00
2945;DHT22;1482;51.398;7.128;2023-01-10T06:28:11;5.00;1.00
2945;DHT22;1482;51.398;7.128;2023-01-10T06:30:37;5.00;1.00
2945;DHT22;1482;51.398;7.128;2023-01-10T06:33:05;5.10;1.00
2945;DHT22;1482;51.398;7.128;2023-01-10T06:35:31;5.10;1.00
2945;DHT22;1482;51.398;7.128;2023-01-10T06:37:57;5.10;1.00
2945;DHT22;1482;51.398;7.128;2023-01-10T06:40:24;5.20;1.00
2945;DHT22;1482;51.398;7.128;2023-01-10T06:42:50;5.20;1.00
2945;DHT22;1482;51.398;7.128;2023-01-10T06:45:16;5.20;1.00
2945;DHT22;1482;51.398;7.128;2023-01-10T06:47:41;5.30;1.00
2945;DHT22;1482;51.398;7.128;2023-01-10T06:50:08;5.20;1.00
2945;DHT22;1482;51.398;7.128;2023-01-10T06:52:33;5.20;1.00
2945;DHT22;1482;51.398;7.128;2023-01-10T06:54:59;5.40;1.00
2945;DHT22;1482;51.398;7.128;2023-01-10T06:57:25;5.30;1.00
2945;DHT22;1482;51.398;7.128;2023-01-10T06:59:52;5.40;99.90
2945;DHT22;1482;51.398;7.128;2023-01-10T07:02:18;5.40;1.00
2945;DHT22;1482;51.398;7.128;2023-01-10T07:04:44;5.50;99.90
2945;DHT22;1482;51.398;7.128;2023-01-10T07:07:09;5.40;99.90
2945;DHT22;1482;51.398;7.128;2023-01-10T07:09:35;5.40;99.90
2945;DHT22;1482;51.398;7.128;2023-01-10T07:12:00;5.50;99.90
2945;DHT22;1482;51.398;7.128;2023-01-10T07:14:26;5.50;99.90
2945;DHT22;1482;51.398;7.128;2023-01-10T07:16:51;5.50;99.90
2945;DHT22;1482;51.398;7.128;2023-01-10T07:19:17;5.60;99.90
2945;DHT22;1482;51.398;7.128;2023-01-10T07:21:44;5.60;99.90
2945;DHT22;1482;51.398;7.128;2023-01-10T07:24:10;5.60;99.90
2945;DHT22;1482;51.398;7.128;2023-01-10T07:26:35;5.70;99.90
2945;DHT22;1482;51.398;7.128;2023-01-10T07:29:01;5.60;99.90
2945;DHT22;1482;51.398;7.128;2023-01-10T07:31:26;5.70;99.90
2945;DHT22;1482;51.398;7.128;2023-01-10T07:33:52;5.50;99.90
2945;DHT22;1482;51.398;7.128;2023-01-10T07:36:18;5.60;99.90
2945;DHT22;1482;51.398;7.128;2023-01-10T07:38:44;5.70;99.90
2945;DHT22;1482;51.398;7.128;2023-01-10T07:41:09;5.60;99.90
2945;DHT22;1482;51.398;7.128;2023-01-10T07:43:35;5.70;99.90
2945;DHT22;1482;51.398;7.128;2023-01-10T07:46:03;5.80;99.90
2945;DHT22;1482;51.398;7.128;2023-01-10T07:48:29;5.80;99.90
2945;DHT22;1482;51.398;7.128;2023-01-10T07:50:55;5.80;99.90
2945;DHT22;1482;51.398;7.128;2023-01-10T07:53:22;5.70;99.90
2945;DHT22;1482;51.398;7.128;2023-01-10T07:55:47;5.80;99.90
2945;DHT22;1482;51.398;7.128;2023-01-10T07:58:13;5.80;99.90
2945;DHT22;1482;51.398;7.128;2023-01-10T08:00:39;5.80;99.90
2945;DHT22;1482;51.398;7.128;2023-01-10T08:03:04;5.70;99.90
2945;DHT22;1482;51.398;7.128;2023-01-10T08:05:31;5.70;99.90
2945;DHT22;1482;51.398;7.128;2023-01-10T08:08:06;5.80;99.90
2945;DHT22;1482;51.398;7.128;2023-01-10T08:10:33;5.80;99.90
2945;DHT22;1482;51.398;7.128;2023-01-10T08:12:59;5.80;99.90
2945;DHT22;1482;51.398;7.128;2023-01-10T08:15:24;5.80;99.90
2945;DHT22;1482;51.398;7.128;2023-01-10T08:17:50;5.80;99.90
2945;DHT22;1482;51.398;7.128;2023-01-10T08:20:15;5.80;99.90
2945;DHT22;1482;51.398;7.128;2023-01-10T08:22:41;5.90;99.90
2945;DHT22;1482;51.398;7.128;2023-01-10T08:25:07;6.00;99.90
2945;DHT22;1482;51.398;7.128;2023-01-10T08:27:33;5.90;99.90
2945;DHT22;1482;51.398;7.128;2023-01-10T08:29:58;6.00;99.90
2945;DHT22;1482;51.398;7.128;2023-01-10T08:32:24;6.10;99.90
2945;DHT22;1482;51.398;7.128;2023-01-10T08:34:49;6.00;99.90
2945;DHT22;1482;51.398;7.128;2023-01-10T08:37:15;5.80;99.90
2945;DHT22;1482;51.398;7.128;2023-01-10T08:39:40;6.00;99.90
2945;DHT22;1482;51.398;7.128;2023-01-10T08:42:06;5.90;99.90
2945;DHT22;1482;51.398;7.128;2023-01-10T08:44:32;6.00;99.90
2945;DHT22;1482;51.398;7.128;2023-01-10T08:46:57;6.00;99.90
2945;DHT22;1482;51.398;7.128;2023-01-10T08:49:23;6.10;99.90
2945;DHT22;1482;51.398;7.128;2023-01-10T08:51:48;6.10;99.90
2945;DHT22;1482;51.398;7.128;2023-01-10T08:54:14;6.20;99.90
2945;DHT22;1482;51.398;7.128;2023-01-10T08:56:40;6.30;99.90
2945;DHT22;1482;51.398;7.128;2023-01-10T08:59:06;6.20;99.90
2945;DHT22;1482;51.398;7.128;2023-01-10T09:01:32;6.20;99.90
2945;DHT22;1482;51.398;7.128;2023-01-10T09:03:58;6.10;99.90
2945;DHT22;1482;51.398;7.128;2023-01-10T09:06:24;6.10;99.90
2945;DHT22;1482;51.398;7.128;2023-01-10T09:08:49;6.30;99.90
2945;DHT22;1482;51.398;7.128;2023-01-10T09:11:15;6.20;99.90
2945;DHT22;1482;51.398;7.128;2023-01-10T09:13:41;6.30;99.90
2945;DHT22;1482;51.398;7.128;2023-01-10T09:16:07;6.20;99.90
2945;DHT22;1482;51.398;7.128;2023-01-10T09:18:33;6.30;99.90
2945;DHT22;1482;51.398;7.128;2023-01-10T09:20:59;6.40;99.90
2945;DHT22;1482;51.398;7.128;2023-01-10T09:23:25;6.30;99.90
2945;DHT22;1482;51.398;7.128;2023-01-10T09:25:52;6.50;99.90
2945;DHT22;1482;51.398;7.128;2023-01-10T09:28:19;6.50;99.90
2945;DHT22;1482;51.398;7.128;2023-01-10T09:30:46;6.60;99.90
2945;DHT22;1482;51.398;7.128;2023-01-10T09:33:12;6.60;99.90
2945;DHT22;1482;51.398;7.128;2023-01-10T09:35:39;6.60;99.90
2945;DHT22;1482;51.398;7.128;2023-01-10T09:38:07;6.70;99.90
2945;DHT22;1482;51.398;7.128;2023-01-10T09:41:02;7.00;99.90
2945;DHT22;1482;51.398;7.128;2023-01-10T09:49:41;8.30;60.60
2945;DHT22;1482;51.398;7.128;2023-01-10T09:52:21;9.20;40.00
2945;DHT22;1482;51.398;7.128;2023-01-10T09:54:49;10.30;15.00
2945;DHT22;1482;51.398;7.128;2023-01-10T09:57:18;10.40;1.00
2945;DHT22;1482;51.398;7.128;2023-01-10T09:59:46;9.90;1.00
2945;DHT22;1482;51.398;7.128;2023-01-10T10:02:27;9.50;1.00
2945;DHT22;1482;51.398;7.128;2023-01-10T10:05:26;9.60;1.00
2945;DHT22;1482;51.398;7.128;2023-01-10T10:07:55;9.70;1.60
2945;DHT22;1482;51.398;7.128;2023-01-10T10:10:48;9.60;1.00
2945;DHT22;1482;51.398;7.128;2023-01-10T10:19:00;9.70;1.00
2945;DHT22;1482;51.398;7.128;2023-01-10T10:24:22;9.90;1.00
2945;DHT22;1482;51.398;7.128;2023-01-10T10:26:59;9.80;1.00
2945;DHT22;1482;51.398;7.128;2023-01-10T10:29:51;10.00;1.00
2945;DHT22;1482;51.398;7.128;2023-01-10T10:32:29;9.90;1.00
2945;DHT22;1482;51.398;7.128;2023-01-10T10:35:15;10.00;1.00
2945;DHT22;1482;51.398;7.128;2023-01-10T10:37:47;9.80;1.00
2945;DHT22;1482;51.398;7.128;2023-01-10T10:40:22;9.60;1.00
2945;DHT22;1482;51.398;7.128;2023-01-10T10:42:52;9.50;1.00
2945;DHT22;1482;51.398;7.128;2023-01-10T10:45:22;9.60;1.00
2945;DHT22;1482;51.398;7.128;2023-01-10T10:47:56;9.50;1.00
2945;DHT22;1482;51.398;7.128;2023-01-10T10:50:32;9.40;1.00
2945;DHT22;1482;51.398;7.128;2023-01-10T10:53:03;9.20;1.00
2945;DHT22;1482;51.398;7.128;2023-01-10T10:55:32;9.10;5.10
2945;DHT22;1482;51.398;7.128;2023-01-10T10:57:59;9.10;5.30
2945;DHT22;1482;51.398;7.128;2023-01-10T11:00:25;9.10;12.60
2945;DHT22;1482;51.398;7.128;2023-01-10T11:03:40;9.20;8.20
2945;DHT22;1482;51.398;7.128;2023-01-10T11:05:42;9.10;6.90
2945;DHT22;1482;51.398;7.128;2023-01-10T11:08:10;9.10;5.60
2945;DHT22;1482;51.398;7.128;2023-01-10T11:10:52;9.20;6.60
2945;DHT22;1482;51.398;7.128;2023-01-10T11:16:06;9.10;9.50
2945;DHT22;1482;51.398;7.128;2023-01-10T11:18:32;8.90;8.30
2945;DHT22;1482;51.398;7.128;2023-01-10T11:23:40;8.70;10.90
2945;DHT22;1482;51.398;7.128;2023-01-10T11:26:52;8.90;16.90
2945;DHT22;1482;51.398;7.128;2023-01-10T11:29:06;8.80;15.70
2945;DHT22;1482;51.398;7.128;2023-01-10T11:31:33;8.70;15.00
2945;DHT22;1482;51.398;7.128;2023-01-10T11:34:16;8.70;17.10
2945;DHT22;1482;51.398;7.128;2023-01-10T11:39:21;8.60;26.10
2945;DHT22;1482;51.398;7.128;2023-01-10T11:41:47;8.40;28.10
2945;DHT22;1482;51.398;7.128;2023-01-10T11:46:48;8.40;30.50
2945;DHT22;1482;51.398;7.128;2023-01-10T11:49:29;8.40;30.50
2945;DHT22;1482;51.398;7.128;2023-01-10T11:52:13;8.50;29.10
2945;DHT22;1482;51.398;7.128;2023-01-10T11:54:40;8.40;29.30
2945;DHT22;1482;51.398;7.128;2023-01-10T11:57:15;8.20;29.30
2945;DHT22;1482;51.398;7.128;2023-01-10T12:02:25;8.20;37.30
2945;DHT22;1482;51.398;7.128;2023-01-10T12:04:54;8.20;35.80
2945;DHT22;1482;51.398;7.128;2023-01-10T12:07:21;8.30;36.80
2945;DHT22;1482;51.398;7.128;2023-01-10T12:09:58;8.30;32.40
2945;DHT22;1482;51.398;7.128;2023-01-10T12:12:28;8.00;26.10
2945;DHT22;1482;51.398;7.128;2023-01-10T12:14:59;8.10;31.10
2945;DHT22;1482;51.398;7.128;2023-01-10T12:17:31;8.20;27.20
2945;DHT22;1482;51.398;7.128;2023-01-10T12:20:02;8.10;31.20
2945;DHT22;1482;51.398;7.128;2023-01-10T12:22:43;8.20;28.50
2945;DHT22;1482;51.398;7.128;2023-01-10T12:25:31;8.20;26.50
2945;DHT22;1482;51.398;7.128;2023-01-10T12:27:57;8.30;25.60
2945;DHT22;1482;51.398;7.128;2023-01-10T12:30:31;8.20;25.90
2945;DHT22;1482;51.398;7.128;2023-01-10T12:33:00;8.30;24.80
2945;DHT22;1482;51.398;7.128;2023-01-10T12:35:46;8.40;22.40
2945;DHT22;1482;51.398;7.128;2023-01-10T12:41:26;8.10;26.40
2945;DHT22;1482;51.398;7.128;2023-01-10T12:44:17;8.10;28.00
2945;DHT22;1482;51.398;7.128;2023-01-10T12:50:02;8.30;21.80
2945;DHT22;1482;51.398;7.128;2023-01-10T12:52:38;8.30;24.90
2945;DHT22;1482;51.398;7.128;2023-01-10T12:55:16;8.40;22.00
2945;DHT22;1482;51.398;7.128;2023-01-10T12:57:46;8.40;14.10
2945;DHT22;1482;51.398;7.128;2023-01-10T13:00:26;8.40;13.40
2945;DHT22;1482;51.398;7.128;2023-01-10T13:02:55;8.30;10.60
2945;DHT22;1482;51.398;7.128;2023-01-10T13:05:27;8.30;12.10
2945;DHT22;1482;51.398;7.128;2023-01-10T13:08:03;8.40;11.50
2945;DHT22;1482;51.398;7.128;2023-01-10T13:10:31;8.40;4.70
2945;DHT22;1482;51.398;7.128;2023-01-10T13:13:10;8.60;2.20
2945;DHT22;1482;51.398;7.128;2023-01-10T13:15:52;8.40;1.00
2945;DHT22;1482;51.398;7.128;2023-01-10T13:18:25;8.50;1.00
2945;DHT22;1482;51.398;7.128;2023-01-10T13:21:06;8.40;1.00
2945;DHT22;1482;51.398;7.128;2023-01-10T13:23:34;8.40;1.00
2945;DHT22;1482;51.398;7.128;2023-01-10T13:26:08;8.50;1.00
2945;DHT22;1482;51.398;7.128;2023-01-10T13:28:36;8.50;1.00
2945;DHT22;1482;51.398;7.128;2023-01-10T13:31:06;8.40;1.00
2945;DHT22;1482;51.398;7.128;2023-01-10T13:36:18;8.50;1.00
2945;DHT22;1482;51.398;7.128;2023-01-10T13:38:49;8.50;1.00
2945;DHT22;1482;51.398;7.128;2023-01-10T13:41:15;8.40;1.00
2945;DHT22;1482;51.398;7.128;2023-01-10T13:44:03;8.30;1.00
2945;DHT22;1482;51.398;7.128;2023-01-10T13:51:26;8.20;1.00
2945;DHT22;1482;51.398;7.128;2023-01-10T13:54:02;8.20;1.00
2945;DHT22;1482;51.398;7.128;2023-01-10T13:56:35;8.20;1.00
2945;DHT22;1482;51.398;7.128;2023-01-10T13:59:03;8.20;1.00
2945;DHT22;1482;51.398;7.128;2023-01-10T14:01:42;8.20;1.00
2945;DHT22;1482;51.398;7.128;2023-01-10T14:04:33;8.00;1.00
2945;DHT22;1482;51.398;7.128;2023-01-10T14:09:46;8.20;1.00
2945;DHT22;1482;51.398;7.128;2023-01-10T14:14:50;8.00;1.00
2945;DHT22;1482;51.398;7.128;2023-01-10T14:19:45;8.00;1.00
2945;DHT22;1482;51.398;7.128;2023-01-10T14:22:44;7.90;1.00
2945;DHT22;1482;51.398;7.128;2023-01-10T14:25:20;7.90;1.00
2945;DHT22;1482;51.398;7.128;2023-01-10T14:27:49;7.90;1.00
2945;DHT22;1482;51.398;7.128;2023-01-10T14:30:39;7.80;1.00
2945;DHT22;1482;51.398;7.128;2023-01-10T14:33:12;7.70;1.00
2945;DHT22;1482;51.398;7.128;2023-01-10T14:35:44;7.70;1.00
2945;DHT22;1482;51.398;7.128;2023-01-10T14:38:25;7.70;1.00
2945;DHT22;1482;51.398;7.128;2023-01-10T14:40:56;7.70;1.00
2945;DHT22;1482;51.398;7.128;2023-01-10T14:43:27;7.70;1.00
2945;DHT22;1482;51.398;7.128;2023-01-10T14:51:26;7.60;1.00
2945;DHT22;1482;51.398;7.128;2023-01-10T14:56:34;7.70;1.00
2945;DHT22;1482;51.398;7.128;2023-01-10T14:59:15;7.60;1.00
2945;DHT22;1482;51.398;7.128;2023-01-10T15:01:41;7.50;1.00
2945;DHT22;1482;51.398;7.128;2023-01-10T15:04:15;7.50;1.00
2945;DHT22;1482;51.398;7.128;2023-01-10T15:07:02;7.40;1.00
2945;DHT22;1482;51.398;7.128;2023-01-10T15:09:33;7.40;1.00
2945;DHT22;1482;51.398;7.128;2023-01-10T15:12:02;7.40;1.00
2945;DHT22;1482;51.398;7.128;2023-01-10T15:14:29;7.40;1.00
2945;DHT22;1482;51.398;7.128;2023-01-10T15:16:59;7.40;1.00
2945;DHT22;1482;51.398;7.128;2023-01-10T15:19:29;7.50;1.00
2945;DHT22;1482;51.398;7.128;2023-01-10T15:21:55;7.40;1.00
2945;DHT22;1482;51.398;7.128;2023-01-10T15:24:31;7.40;1.00
2945;DHT22;1482;51.398;7.128;2023-01-10T15:27:00;7.30;1.00
2945;DHT22;1482;51.398;7.128;2023-01-10T15:29:26;7.30;1.00
2945;DHT22;1482;51.398;7.128;2023-01-10T15:31:54;7.30;1.00
2945;DHT22;1482;51.398;7.128;2023-01-10T15:34:26;7.30;1.00
2945;DHT22;1482;51.398;7.128;2023-01-10T15:36:55;7.30;1.00
2945;DHT22;1482;51.398;7.128;2023-01-10T15:39:30;7.20;1.00
2945;DHT22;1482;51.398;7.128;2023-01-10T15:42:00;7.20;1.00
2945;DHT22;1482;51.398;7.128;2023-01-10T15:44:41;7.30;1.00
2945;DHT22;1482;51.398;7.128;2023-01-10T15:50:26;7.20;1.00
2945;DHT22;1482;51.398;7.128;2023-01-10T15:53:00;7.20;1.00
2945;DHT22;1482;51.398;7.128;2023-01-10T15:55:45;7.20;1.00
2945;DHT22;1482;51.398;7.128;2023-01-10T15:58:16;7.20;1.00
2945;DHT22;1482;51.398;7.128;2023-01-10T16:00:44;7.20;1.00
2945;DHT22;1482;51.398;7.128;2023-01-10T16:03:32;7.10;1.00
2945;DHT22;1482;51.398;7.128;2023-01-10T16:05:59;7.20;1.00
2945;DHT22;1482;51.398;7.128;2023-01-10T16:08:30;7.10;1.00
2945;DHT22;1482;51.398;7.128;2023-01-10T16:11:02;7.10;2.10
2945;DHT22;1482;51.398;7.128;2023-01-10T16:13:29;7.10;2.80
2945;DHT22;1482;51.398;7.128;2023-01-10T16:16:00;7.10;8.20
2945;DHT22;1482;51.398;7.128;2023-01-10T16:18:29;7.10;8.40
2945;DHT22;1482;51.398;7.128;2023-01-10T16:20:57;7.20;13.90
2945;DHT22;1482;51.398;7.128;2023-01-10T16:23:34;7.10;9.30
2945;DHT22;1482;51.398;7.128;2023-01-10T16:26:03;7.10;15.00
2945;DHT22;1482;51.398;7.128;2023-01-10T16:28:31;7.10;23.30
2945;DHT22;1482;51.398;7.128;2023-01-10T16:31:04;7.10;28.80
2945;DHT22;1482;51.398;7.128;2023-01-10T16:33:29;6.90;42.50
2945;DHT22;1482;51.398;7.128;2023-01-10T16:35:57;7.00;55.60
2945;DHT22;1482;51.398;7.128;2023-01-10T16:38:25;6.90;67.60
2945;DHT22;1482;51.398;7.128;2023-01-10T16:43:19;6.80;94.80
2945;DHT22;1482;51.398;7.128;2023-01-10T16:45:50;6.80;96.60
2945;DHT22;1482;51.398;7.128;2023-01-10T16:48:18;6.50;99.90
2945;DHT22;1482;51.398;7.128;2023-01-10T16:50:45;6.50;99.90
2945;DHT22;1482;51.398;7.128;2023-01-10T16:53:16;6.50;99.90
2945;DHT22;1482;51.398;7.128;2023-01-10T16:58:10;6.40;99.90
2945;DHT22;1482;51.398;7.128;2023-01-10T17:00:37;6.40;99.90
2945;DHT22;1482;51.398;7.128;2023-01-10T17:03:05;6.40;99.90
2945;DHT22;1482;51.398;7.128;2023-01-10T17:05:33;6.40;99.90
2945;DHT22;1482;51.398;7.128;2023-01-10T17:07:59;6.30;99.90
2945;DHT22;1482;51.398;7.128;2023-01-10T17:10:25;6.30;99.90
2945;DHT22;1482;51.398;7.128;2023-01-10T17:12:51;6.20;99.90
2945;DHT22;1482;51.398;7.128;2023-01-10T17:15:17;6.10;99.90
2945;DHT22;1482;51.398;7.128;2023-01-10T17:17:42;6.10;99.90
2945;DHT22;1482;51.398;7.128;2023-01-10T17:20:11;6.10;1.00
2945;DHT22;1482;51.398;7.128;2023-01-10T17:22:37;6.00;1.00
2945;DHT22;1482;51.398;7.128;2023-01-10T17:25:03;6.00;1.00
2945;DHT22;1482;51.398;7.128;2023-01-10T17:27:28;6.00;1.00
2945;DHT22;1482;51.398;7.128;2023-01-10T17:29:54;6.00;1.00
2945;DHT22;1482;51.398;7.128;2023-01-10T17:32:19;6.00;1.00
2945;DHT22;1482;51.398;7.128;2023-01-10T17:34:45;6.00;89.60
2945;DHT22;1482;51.398;7.128;2023-01-10T17:37:11;6.00;1.00
2945;DHT22;1482;51.398;7.128;2023-01-10T17:39:36;6.00;59.70
2945;DHT22;1482;51.398;7.128;2023-01-10T17:42:03;6.00;97.10
2945;DHT22;1482;51.398;7.128;2023-01-10T17:44:29;6.00;99.90
2945;DHT22;1482;51.398;7.128;2023-01-10T17:46:54;6.00;99.90
2945;DHT22;1482;51.398;7.128;2023-01-10T17:49:21;6.00;99.90
2945;DHT22;1482;51.398;7.128;2023-01-10T17:51:47;6.00;99.90
2945;DHT22;1482;51.398;7.128;2023-01-10T17:54:12;6.10;99.90
2945;DHT22;1482;51.398;7.128;2023-01-10T17:56:39;6.00;99.90
2945;DHT22;1482;51.398;7.128;2023-01-10T17:59:05;6.00;99.90
2945;DHT22;1482;51.398;7.128;2023-01-10T18:01:31;6.00;1.00
2945;DHT22;1482;51.398;7.128;2023-01-10T18:03:56;5.90;1.00
2945;DHT22;1482;51.398;7.128;2023-01-10T18:06:22;5.90;1.00
2945;DHT22;1482;51.398;7.128;2023-01-10T18:08:47;6.00;13.80